sensor_id;sensor_type;location;lat;lon;timestamp;P1;durP1;ratioP1;P2;durP2;ratioP2
17606;SDS011;69222;52.242;20.980;2023-07-16T00:00:27;4.65;;;3.60;;
17606;SDS011;69222;52.242;20.980;2023-07-16T00:02:55;4.40;;;3.42;;
17606;SDS011;69222;52.242;20.980;2023-07-16T00:05:25;6.45;;;3.60;;
17606;SDS011;69222;52.242;20.980;2023-07-16T00:07:53;4.47;;;3.53;;
17606;SDS011;69222;52.242;20.980;2023-07-16T00:10:21;4.63;;;3.35;;
17606;SDS011;69222;52.242;20.980;2023-07-16T00:12:49;4.75;;;3.85;;
17606;SDS011;69222;52.242;20.980;2023-07-16T00:15:17;3.95;;;3.58;;
17606;SDS011;69222;52.242;20.980;2023-07-16T00:17:45;4.50;;;3.85;;
17606;SDS011;69222;52.242;20.980;2023-07-16T00:20:13;4.47;;;3.80;;
17606;SDS011;69222;52.242;20.980;2023-07-16T00:22:43;3.92;;;3.55;;
17606;SDS011;69222;52.242;20.980;2023-07-16T00:25:11;5.75;;;3.85;;
17606;SDS011;69222;52.242;20.980;2023-07-16T00:27:39;3.75;;;3.45;;
17606;SDS011;69222;52.242;20.980;2023-07-16T00:30:08;4.68;;;3.80;;
17606;SDS011;69222;52.242;20.980;2023-07-16T00:32:37;6.47;;;3.75;;
17606;SDS011;69222;52.242;20.980;2023-07-16T00:35:06;4.50;;;3.60;;
17606;SDS011;69222;52.242;20.980;2023-07-16T00:37:34;4.70;;;3.78;;
17606;SDS011;69222;52.242;20.980;2023-07-16T00:40:05;3.92;;;3.63;;
17606;SDS011;69222;52.242;20.980;2023-07-16T00:42:34;4.50;;;4.10;;
17606;SDS011;69222;52.242;20.980;2023-07-16T00:45:02;4.65;;;3.67;;
17606;SDS011;69222;52.242;20.980;2023-07-16T00:47:36;4.88;;;3.72;;
17606;SDS011;69222;52.242;20.980;2023-07-16T00:50:04;4.20;;;3.50;;
17606;SDS011;69222;52.242;20.980;2023-07-16T00:52:33;3.72;;;3.28;;
17606;SDS011;69222;52.242;20.980;2023-07-16T00:55:03;4.20;;;3.75;;
17606;SDS011;69222;52.242;20.980;2023-07-16T00:57:32;3.90;;;3.55;;
17606;SDS011;69222;52.242;20.980;2023-07-16T01:00:01;4.68;;;4.28;;
17606;SDS011;69222;52.242;20.980;2023-07-16T01:02:30;3.92;;;3.63;;
17606;SDS011;69222;52.242;20.980;2023-07-16T01:04:58;4.40;;;3.95;;
17606;SDS011;69222;52.242;20.980;2023-07-16T01:07:27;5.18;;;4.03;;
17606;SDS011;69222;52.242;20.980;2023-07-16T01:09:59;4.80;;;3.97;;
17606;SDS011;69222;52.242;20.980;2023-07-16T01:12:30;5.85;;;5.03;;
17606;SDS011;69222;52.242;20.980;2023-07-16T01:15:00;5.70;;;4.10;;
17606;SDS011;69222;52.242;20.980;2023-07-16T01:17:28;4.78;;;4.38;;
17606;SDS011;69222;52.242;20.980;2023-07-16T01:19:57;4.30;;;3.90;;
17606;SDS011;69222;52.242;20.980;2023-07-16T01:22:34;4.78;;;3.90;;
17606;SDS011;69222;52.242;20.980;2023-07-16T01:25:21;7.78;;;4.28;;
17606;SDS011;69222;52.242;20.980;2023-07-16T01:28:15;4.90;;;4.10;;
17606;SDS011;69222;52.242;20.980;2023-07-16T01:30:55;5.13;;;4.30;;
17606;SDS011;69222;52.242;20.980;2023-07-16T01:33:26;7.70;;;4.32;;
17606;SDS011;69222;52.242;20.980;2023-07-16T01:35:54;5.03;;;4.60;;
17606;SDS011;69222;52.242;20.980;2023-07-16T01:38:23;9.68;;;4.85;;
17606;SDS011;69222;52.242;20.980;2023-07-16T01:40:54;4.60;;;4.20;;
17606;SDS011;69222;52.242;20.980;2023-07-16T01:43:23;4.72;;;4.25;;
17606;SDS011;69222;52.242;20.980;2023-07-16T01:45:51;5.43;;;4.93;;
17606;SDS011;69222;52.242;20.980;2023-07-16T01:48:24;5.10;;;4.65;;
17606;SDS011;69222;52.242;20.980;2023-07-16T01:50:57;5.05;;;4.57;;
17606;SDS011;69222;52.242;20.980;2023-07-16T01:53:25;5.60;;;4.72;;
17606;SDS011;69222;52.242;20.980;2023-07-16T01:55:53;6.30;;;4.32;;
17606;SDS011;69222;52.242;20.980;2023-07-16T01:58:21;5.63;;;5.13;;
17606;SDS011;69222;52.242;20.980;2023-07-16T02:00:49;5.45;;;4.95;;
17606;SDS011;69222;52.242;20.980;2023-07-16T02:03:18;5.32;;;4.82;;
17606;SDS011;69222;52.242;20.980;2023-07-16T02:05:47;5.22;;;4.70;;
17606;SDS011;69222;52.242;20.980;2023-07-16T02:08:16;5.20;;;4.75;;
17606;SDS011;69222;52.242;20.980;2023-07-16T02:10:44;5.43;;;4.80;;
17606;SDS011;69222;52.242;20.980;2023-07-16T02:13:14;5.68;;;5.10;;
17606;SDS011;69222;52.242;20.980;2023-07-16T02:15:43;8.02;;;5.30;;
17606;SDS011;69222;52.242;20.980;2023-07-16T02:18:11;6.55;;;4.97;;
17606;SDS011;69222;52.242;20.980;2023-07-16T02:20:39;4.97;;;4.35;;
17606;SDS011;69222;52.242;20.980;2023-07-16T02:23:08;5.47;;;4.95;;
17606;SDS011;69222;52.242;20.980;2023-07-16T02:25:36;6.03;;;5.43;;
17606;SDS011;69222;52.242;20.980;2023-07-16T02:28:04;6.00;;;5.28;;
17606;SDS011;69222;52.242;20.980;2023-07-16T02:30:32;6.40;;;4.90;;
17606;SDS011;69222;52.242;20.980;2023-07-16T02:33:00;6.88;;;5.10;;
17606;SDS011;69222;52.242;20.980;2023-07-16T02:35:28;5.72;;;4.97;;
17606;SDS011;69222;52.242;20.980;2023-07-16T02:37:57;6.68;;;5.35;;
17606;SDS011;69222;52.242;20.980;2023-07-16T02:40:26;5.78;;;5.18;;
17606;SDS011;69222;52.242;20.980;2023-07-16T02:42:54;5.82;;;5.22;;
17606;SDS011;69222;52.242;20.980;2023-07-16T02:45:22;6.53;;;4.88;;
17606;SDS011;69222;52.242;20.980;2023-07-16T02:47:50;6.35;;;5.32;;
17606;SDS011;69222;52.242;20.980;2023-07-16T02:50:18;6.55;;;5.60;;
17606;SDS011;69222;52.242;20.980;2023-07-16T02:52:46;8.20;;;5.78;;
17606;SDS011;69222;52.242;20.980;2023-07-16T02:55:14;6.05;;;5.45;;
17606;SDS011;69222;52.242;20.980;2023-07-16T02:57:44;7.28;;;5.78;;
17606;SDS011;69222;52.242;20.980;2023-07-16T03:00:12;6.45;;;5.43;;
17606;SDS011;69222;52.242;20.980;2023-07-16T03:02:41;5.85;;;5.10;;
17606;SDS011;69222;52.242;20.980;2023-07-16T03:05:09;6.30;;;5.53;;
17606;SDS011;69222;52.242;20.980;2023-07-16T03:07:37;6.40;;;5.80;;
17606;SDS011;69222;52.242;20.980;2023-07-16T03:10:05;6.35;;;5.75;;
17606;SDS011;69222;52.242;20.980;2023-07-16T03:12:34;5.90;;;5.30;;
17606;SDS011;69222;52.242;20.980;2023-07-16T03:15:04;5.47;;;5.03;;
17606;SDS011;69222;52.242;20.980;2023-07-16T03:17:33;6.65;;;5.70;;
17606;SDS011;69222;52.242;20.980;2023-07-16T03:20:01;6.70;;;6.10;;
17606;SDS011;69222;52.242;20.980;2023-07-16T03:22:30;6.18;;;5.57;;
17606;SDS011;69222;52.242;20.980;2023-07-16T03:24:58;6.53;;;5.93;;
17606;SDS011;69222;52.242;20.980;2023-07-16T03:27:26;7.28;;;5.50;;
17606;SDS011;69222;52.242;20.980;2023-07-16T03:29:54;9.23;;;6.32;;
17606;SDS011;69222;52.242;20.980;2023-07-16T03:32:24;7.22;;;5.75;;
17606;SDS011;69222;52.242;20.980;2023-07-16T03:35:03;6.47;;;5.82;;
17606;SDS011;69222;52.242;20.980;2023-07-16T03:37:32;6.85;;;6.15;;
17606;SDS011;69222;52.242;20.980;2023-07-16T03:40:11;6.25;;;5.65;;
17606;SDS011;69222;52.242;20.980;2023-07-16T03:42:41;8.18;;;6.57;;
17606;SDS011;69222;52.242;20.980;2023-07-16T03:45:09;8.18;;;5.80;;
17606;SDS011;69222;52.242;20.980;2023-07-16T03:47:39;6.85;;;5.80;;
17606;SDS011;69222;52.242;20.980;2023-07-16T03:50:07;9.85;;;6.40;;
17606;SDS011;69222;52.242;20.980;2023-07-16T03:52:38;7.05;;;5.88;;
17606;SDS011;69222;52.242;20.980;2023-07-16T03:55:06;8.57;;;6.03;;
17606;SDS011;69222;52.242;20.980;2023-07-16T03:57:35;8.15;;;5.95;;
17606;SDS011;69222;52.242;20.980;2023-07-16T04:00:04;6.78;;;6.18;;
17606;SDS011;69222;52.242;20.980;2023-07-16T04:02:35;8.15;;;6.65;;
17606;SDS011;69222;52.242;20.980;2023-07-16T04:05:05;5.82;;;5.32;;
17606;SDS011;69222;52.242;20.980;2023-07-16T04:07:34;8.60;;;6.03;;
17606;SDS011;69222;52.242;20.980;2023-07-16T04:10:03;6.68;;;6.07;;
17606;SDS011;69222;52.242;20.980;2023-07-16T04:12:32;12.77;;;6.25;;
17606;SDS011;69222;52.242;20.980;2023-07-16T04:15:00;8.13;;;5.82;;
17606;SDS011;69222;52.242;20.980;2023-07-16T04:17:28;6.95;;;5.88;;
17606;SDS011;69222;52.242;20.980;2023-07-16T04:19:56;7.88;;;6.75;;
17606;SDS011;69222;52.242;20.980;2023-07-16T04:22:25;7.18;;;6.47;;
17606;SDS011;69222;52.242;20.980;2023-07-16T04:24:53;7.32;;;6.22;;
17606;SDS011;69222;52.242;20.980;2023-07-16T04:27:21;7.00;;;6.18;;
17606;SDS011;69222;52.242;20.980;2023-07-16T04:29:50;7.28;;;6.32;;
17606;SDS011;69222;52.242;20.980;2023-07-16T04:32:18;7.57;;;5.85;;
17606;SDS011;69222;52.242;20.980;2023-07-16T04:34:47;6.47;;;5.88;;
17606;SDS011;69222;52.242;20.980;2023-07-16T04:37:15;6.60;;;5.78;;
17606;SDS011;69222;52.242;20.980;2023-07-16T04:39:44;6.60;;;5.82;;
17606;SDS011;69222;52.242;20.980;2023-07-16T04:42:13;8.15;;;6.03;;
17606;SDS011;69222;52.242;20.980;2023-07-16T04:44:43;6.95;;;6.13;;
17606;SDS011;69222;52.242;20.980;2023-07-16T04:47:11;7.13;;;6.05;;
17606;SDS011;69222;52.242;20.980;2023-07-16T04:49:39;6.47;;;5.88;;
17606;SDS011;69222;52.242;20.980;2023-07-16T04:52:07;6.53;;;5.93;;
17606;SDS011;69222;52.242;20.980;2023-07-16T04:54:35;7.05;;;6.30;;
17606;SDS011;69222;52.242;20.980;2023-07-16T04:57:07;8.70;;;5.63;;
17606;SDS011;69222;52.242;20.980;2023-07-16T04:59:35;6.68;;;5.78;;
17606;SDS011;69222;52.242;20.980;2023-07-16T05:02:04;6.70;;;5.55;;
17606;SDS011;69222;52.242;20.980;2023-07-16T05:04:33;8.02;;;5.88;;
17606;SDS011;69222;52.242;20.980;2023-07-16T05:07:02;6.20;;;5.60;;
17606;SDS011;69222;52.242;20.980;2023-07-16T05:09:30;6.00;;;5.50;;
17606;SDS011;69222;52.242;20.980;2023-07-16T05:11:58;5.93;;;5.28;;
17606;SDS011;69222;52.242;20.980;2023-07-16T05:14:28;6.03;;;5.43;;
17606;SDS011;69222;52.242;20.980;2023-07-16T05:16:56;6.05;;;5.45;;
17606;SDS011;69222;52.242;20.980;2023-07-16T05:19:25;6.82;;;6.15;;
17606;SDS011;69222;52.242;20.980;2023-07-16T05:21:53;6.15;;;5.65;;
17606;SDS011;69222;52.242;20.980;2023-07-16T05:24:21;6.53;;;5.57;;
17606;SDS011;69222;52.242;20.980;2023-07-16T05:26:48;5.97;;;5.43;;
17606;SDS011;69222;52.242;20.980;2023-07-16T05:29:17;7.43;;;5.38;;
17606;SDS011;69222;52.242;20.980;2023-07-16T05:31:46;5.60;;;5.03;;
17606;SDS011;69222;52.242;20.980;2023-07-16T05:34:14;6.35;;;5.30;;
17606;SDS011;69222;52.242;20.980;2023-07-16T05:36:43;6.15;;;5.32;;
17606;SDS011;69222;52.242;20.980;2023-07-16T05:39:11;5.60;;;4.78;;
17606;SDS011;69222;52.242;20.980;2023-07-16T05:41:40;5.38;;;4.88;;
17606;SDS011;69222;52.242;20.980;2023-07-16T05:44:08;6.03;;;4.90;;
17606;SDS011;69222;52.242;20.980;2023-07-16T05:46:36;5.00;;;4.55;;
17606;SDS011;69222;52.242;20.980;2023-07-16T05:49:06;6.13;;;4.78;;
17606;SDS011;69222;52.242;20.980;2023-07-16T05:51:34;4.18;;;3.88;;
17606;SDS011;69222;52.242;20.980;2023-07-16T05:54:02;4.95;;;4.55;;
17606;SDS011;69222;52.242;20.980;2023-07-16T05:56:30;4.65;;;4.25;;
17606;SDS011;69222;52.242;20.980;2023-07-16T05:58:58;6.28;;;4.63;;
17606;SDS011;69222;52.242;20.980;2023-07-16T06:01:26;5.35;;;4.20;;
17606;SDS011;69222;52.242;20.980;2023-07-16T06:03:54;4.18;;;3.88;;
17606;SDS011;69222;52.242;20.980;2023-07-16T06:06:24;4.63;;;4.10;;
17606;SDS011;69222;52.242;20.980;2023-07-16T06:08:54;9.20;;;4.57;;
17606;SDS011;69222;52.242;20.980;2023-07-16T06:11:22;6.82;;;4.40;;
17606;SDS011;69222;52.242;20.980;2023-07-16T06:13:52;6.88;;;4.75;;
17606;SDS011;69222;52.242;20.980;2023-07-16T06:16:21;4.72;;;4.25;;
17606;SDS011;69222;52.242;20.980;2023-07-16T06:18:49;4.65;;;4.25;;
17606;SDS011;69222;52.242;20.980;2023-07-16T06:21:17;4.97;;;4.45;;
17606;SDS011;69222;52.242;20.980;2023-07-16T06:23:47;4.85;;;4.45;;
17606;SDS011;69222;52.242;20.980;2023-07-16T06:26:15;4.88;;;4.47;;
17606;SDS011;69222;52.242;20.980;2023-07-16T06:28:43;6.53;;;4.55;;
17606;SDS011;69222;52.242;20.980;2023-07-16T06:31:15;5.90;;;4.30;;
17606;SDS011;69222;52.242;20.980;2023-07-16T06:33:43;5.22;;;4.78;;
17606;SDS011;69222;52.242;20.980;2023-07-16T06:36:13;6.78;;;4.60;;
17606;SDS011;69222;52.242;20.980;2023-07-16T06:38:41;4.40;;;4.00;;
17606;SDS011;69222;52.242;20.980;2023-07-16T06:41:11;4.80;;;4.40;;
17606;SDS011;69222;52.242;20.980;2023-07-16T06:43:39;4.60;;;4.20;;
17606;SDS011;69222;52.242;20.980;2023-07-16T06:46:07;4.88;;;4.30;;
17606;SDS011;69222;52.242;20.980;2023-07-16T06:48:35;5.15;;;4.18;;
17606;SDS011;69222;52.242;20.980;2023-07-16T06:51:03;5.55;;;4.47;;
17606;SDS011;69222;52.242;20.980;2023-07-16T06:53:31;4.65;;;4.15;;
17606;SDS011;69222;52.242;20.980;2023-07-16T06:56:00;4.32;;;4.00;;
17606;SDS011;69222;52.242;20.980;2023-07-16T06:58:32;4.53;;;4.15;;
17606;SDS011;69222;52.242;20.980;2023-07-16T07:01:01;4.75;;;4.32;;
17606;SDS011;69222;52.242;20.980;2023-07-16T07:03:29;4.72;;;3.67;;
17606;SDS011;69222;52.242;20.980;2023-07-16T07:06:01;4.00;;;3.70;;
17606;SDS011;69222;52.242;20.980;2023-07-16T07:08:30;4.47;;;3.75;;
17606;SDS011;69222;52.242;20.980;2023-07-16T07:10:58;4.30;;;3.97;;
17606;SDS011;69222;52.242;20.980;2023-07-16T07:13:26;4.55;;;4.00;;
17606;SDS011;69222;52.242;20.980;2023-07-16T07:15:57;5.80;;;3.80;;
17606;SDS011;69222;52.242;20.980;2023-07-16T07:18:25;4.38;;;3.97;;
17606;SDS011;69222;52.242;20.980;2023-07-16T07:20:54;3.92;;;3.53;;
17606;SDS011;69222;52.242;20.980;2023-07-16T07:23:21;5.15;;;3.78;;
17606;SDS011;69222;52.242;20.980;2023-07-16T07:25:50;4.20;;;3.75;;
17606;SDS011;69222;52.242;20.980;2023-07-16T07:28:18;6.75;;;3.67;;
17606;SDS011;69222;52.242;20.980;2023-07-16T07:30:47;4.10;;;3.80;;
17606;SDS011;69222;52.242;20.980;2023-07-16T07:33:16;4.15;;;3.85;;
17606;SDS011;69222;52.242;20.980;2023-07-16T07:35:45;5.85;;;4.07;;
17606;SDS011;69222;52.242;20.980;2023-07-16T07:38:13;3.92;;;3.53;;
17606;SDS011;69222;52.242;20.980;2023-07-16T07:40:42;4.63;;;3.58;;
17606;SDS011;69222;52.242;20.980;2023-07-16T07:43:10;4.35;;;4.00;;
17606;SDS011;69222;52.242;20.980;2023-07-16T07:45:38;3.78;;;3.47;;
17606;SDS011;69222;52.242;20.980;2023-07-16T07:48:07;3.80;;;3.50;;
17606;SDS011;69222;52.242;20.980;2023-07-16T07:50:36;4.50;;;4.13;;
17606;SDS011;69222;52.242;20.980;2023-07-16T07:53:04;5.13;;;3.80;;
17606;SDS011;69222;52.242;20.980;2023-07-16T07:55:33;4.18;;;3.88;;
17606;SDS011;69222;52.242;20.980;2023-07-16T07:58:01;3.38;;;3.10;;
17606;SDS011;69222;52.242;20.980;2023-07-16T08:00:29;4.20;;;3.90;;
17606;SDS011;69222;52.242;20.980;2023-07-16T08:02:57;4.20;;;3.83;;
17606;SDS011;69222;52.242;20.980;2023-07-16T08:05:26;4.05;;;3.67;;
17606;SDS011;69222;52.242;20.980;2023-07-16T08:07:55;3.80;;;3.50;;
17606;SDS011;69222;52.242;20.980;2023-07-16T08:10:23;3.88;;;3.58;;
17606;SDS011;69222;52.242;20.980;2023-07-16T08:12:51;3.88;;;3.47;;
17606;SDS011;69222;52.242;20.980;2023-07-16T08:15:19;4.10;;;3.80;;
17606;SDS011;69222;52.242;20.980;2023-07-16T08:17:47;4.90;;;3.83;;
17606;SDS011;69222;52.242;20.980;2023-07-16T08:20:16;4.57;;;4.18;;
17606;SDS011;69222;52.242;20.980;2023-07-16T08:22:44;6.20;;;5.60;;
17606;SDS011;69222;52.242;20.980;2023-07-16T08:25:13;4.43;;;4.07;;
17606;SDS011;69222;52.242;20.980;2023-07-16T08:27:41;4.43;;;3.63;;
17606;SDS011;69222;52.242;20.980;2023-07-16T08:30:10;4.00;;;3.42;;
17606;SDS011;69222;52.242;20.980;2023-07-16T08:32:39;5.72;;;4.00;;
17606;SDS011;69222;52.242;20.980;2023-07-16T08:35:08;4.75;;;3.72;;
17606;SDS011;69222;52.242;20.980;2023-07-16T08:37:42;4.07;;;3.78;;
17606;SDS011;69222;52.242;20.980;2023-07-16T08:40:10;4.40;;;3.78;;
17606;SDS011;69222;52.242;20.980;2023-07-16T08:42:41;6.18;;;3.60;;
17606;SDS011;69222;52.242;20.980;2023-07-16T08:45:12;3.88;;;3.47;;
17606;SDS011;69222;52.242;20.980;2023-07-16T08:47:42;5.22;;;3.75;;
17606;SDS011;69222;52.242;20.980;2023-07-16T08:50:10;4.90;;;3.50;;
17606;SDS011;69222;52.242;20.980;2023-07-16T08:52:40;6.55;;;3.40;;
17606;SDS011;69222;52.242;20.980;2023-07-16T08:55:08;3.40;;;3.10;;
17606;SDS011;69222;52.242;20.980;2023-07-16T08:57:36;7.72;;;3.60;;
17606;SDS011;69222;52.242;20.980;2023-07-16T09:00:07;2.97;;;2.78;;
17606;SDS011;69222;52.242;20.980;2023-07-16T09:02:36;4.00;;;3.53;;
17606;SDS011;69222;52.242;20.980;2023-07-16T09:05:05;4.80;;;3.72;;
17606;SDS011;69222;52.242;20.980;2023-07-16T09:07:33;4.40;;;3.30;;
17606;SDS011;69222;52.242;20.980;2023-07-16T09:10:03;4.88;;;3.20;;
17606;SDS011;69222;52.242;20.980;2023-07-16T09:12:32;5.25;;;3.78;;
17606;SDS011;69222;52.242;20.980;2023-07-16T09:15:00;3.78;;;3.47;;
17606;SDS011;69222;52.242;20.980;2023-07-16T09:17:31;6.70;;;3.95;;
17606;SDS011;69222;52.242;20.980;2023-07-16T09:20:02;3.60;;;3.25;;
17606;SDS011;69222;52.242;20.980;2023-07-16T09:22:30;3.47;;;3.17;;
17606;SDS011;69222;52.242;20.980;2023-07-16T09:24:59;6.22;;;3.67;;
17606;SDS011;69222;52.242;20.980;2023-07-16T09:27:28;3.85;;;3.45;;
17606;SDS011;69222;52.242;20.980;2023-07-16T09:29:56;4.03;;;3.60;;
17606;SDS011;69222;52.242;20.980;2023-07-16T09:32:33;6.05;;;3.65;;
17606;SDS011;69222;52.242;20.980;2023-07-16T09:35:05;4.13;;;3.30;;
17606;SDS011;69222;52.242;20.980;2023-07-16T09:37:35;6.10;;;3.42;;
17606;SDS011;69222;52.242;20.980;2023-07-16T09:40:05;5.35;;;3.80;;
17606;SDS011;69222;52.242;20.980;2023-07-16T09:42:36;4.43;;;3.83;;
17606;SDS011;69222;52.242;20.980;2023-07-16T09:45:06;4.75;;;3.88;;
17606;SDS011;69222;52.242;20.980;2023-07-16T09:47:36;6.63;;;3.90;;
17606;SDS011;69222;52.242;20.980;2023-07-16T09:50:05;4.68;;;3.83;;
17606;SDS011;69222;52.242;20.980;2023-07-16T09:52:33;4.93;;;3.60;;
17606;SDS011;69222;52.242;20.980;2023-07-16T09:55:02;4.18;;;3.78;;
17606;SDS011;69222;52.242;20.980;2023-07-16T09:57:32;3.53;;;3.30;;
17606;SDS011;69222;52.242;20.980;2023-07-16T10:00:04;4.20;;;3.70;;
17606;SDS011;69222;52.242;20.980;2023-07-16T10:02:40;3.78;;;3.47;;
17606;SDS011;69222;52.242;20.980;2023-07-16T10:05:12;4.40;;;3.05;;
17606;SDS011;69222;52.242;20.980;2023-07-16T10:07:40;3.83;;;3.28;;
17606;SDS011;69222;52.242;20.980;2023-07-16T10:10:11;5.65;;;3.65;;
17606;SDS011;69222;52.242;20.980;2023-07-16T10:12:41;3.90;;;3.58;;
17606;SDS011;69222;52.242;20.980;2023-07-16T10:15:11;3.30;;;3.00;;
17606;SDS011;69222;52.242;20.980;2023-07-16T10:17:49;4.90;;;3.53;;
17606;SDS011;69222;52.242;20.980;2023-07-16T10:20:18;3.50;;;3.20;;
17606;SDS011;69222;52.242;20.980;2023-07-16T10:22:56;3.65;;;3.35;;
17606;SDS011;69222;52.242;20.980;2023-07-16T10:25:25;4.18;;;3.70;;
17606;SDS011;69222;52.242;20.980;2023-07-16T10:27:56;5.38;;;3.85;;
17606;SDS011;69222;52.242;20.980;2023-07-16T10:30:24;4.63;;;4.22;;
17606;SDS011;69222;52.242;20.980;2023-07-16T10:32:53;4.78;;;4.25;;
17606;SDS011;69222;52.242;20.980;2023-07-16T10:35:21;5.93;;;3.83;;
17606;SDS011;69222;52.242;20.980;2023-07-16T10:37:49;5.05;;;4.20;;
17606;SDS011;69222;52.242;20.980;2023-07-16T10:40:17;7.30;;;4.43;;
17606;SDS011;69222;52.242;20.980;2023-07-16T10:42:45;5.15;;;4.50;;
17606;SDS011;69222;52.242;20.980;2023-07-16T10:45:14;5.35;;;4.40;;
17606;SDS011;69222;52.242;20.980;2023-07-16T10:47:50;6.18;;;3.97;;
17606;SDS011;69222;52.242;20.980;2023-07-16T10:50:21;5.43;;;4.43;;
17606;SDS011;69222;52.242;20.980;2023-07-16T10:52:50;5.43;;;4.47;;
17606;SDS011;69222;52.242;20.980;2023-07-16T10:55:19;7.47;;;4.00;;
17606;SDS011;69222;52.242;20.980;2023-07-16T10:57:48;5.32;;;4.70;;
17606;SDS011;69222;52.242;20.980;2023-07-16T11:00:18;5.28;;;4.78;;
17606;SDS011;69222;52.242;20.980;2023-07-16T11:02:46;6.03;;;4.65;;
17606;SDS011;69222;52.242;20.980;2023-07-16T11:05:14;8.43;;;4.53;;
17606;SDS011;69222;52.242;20.980;2023-07-16T11:07:45;4.90;;;4.50;;
17606;SDS011;69222;52.242;20.980;2023-07-16T11:10:18;6.68;;;4.28;;
17606;SDS011;69222;52.242;20.980;2023-07-16T11:12:49;5.43;;;4.22;;
17606;SDS011;69222;52.242;20.980;2023-07-16T11:15:29;7.43;;;4.50;;
17606;SDS011;69222;52.242;20.980;2023-07-16T11:17:58;5.90;;;4.10;;
17606;SDS011;69222;52.242;20.980;2023-07-16T11:20:26;6.80;;;4.15;;
17606;SDS011;69222;52.242;20.980;2023-07-16T11:22:58;4.10;;;3.70;;
17606;SDS011;69222;52.242;20.980;2023-07-16T11:25:27;5.60;;;3.90;;
17606;SDS011;69222;52.242;20.980;2023-07-16T11:27:56;7.88;;;4.03;;
17606;SDS011;69222;52.242;20.980;2023-07-16T11:30:25;4.75;;;4.00;;
17606;SDS011;69222;52.242;20.980;2023-07-16T11:32:54;6.60;;;4.28;;
17606;SDS011;69222;52.242;20.980;2023-07-16T11:35:22;4.53;;;3.83;;
17606;SDS011;69222;52.242;20.980;2023-07-16T11:37:50;4.47;;;4.07;;
17606;SDS011;69222;52.242;20.980;2023-07-16T11:40:20;4.93;;;4.03;;
17606;SDS011;69222;52.242;20.980;2023-07-16T11:42:48;8.23;;;4.20;;
17606;SDS011;69222;52.242;20.980;2023-07-16T11:45:17;6.18;;;3.97;;
17606;SDS011;69222;52.242;20.980;2023-07-16T11:47:49;5.50;;;3.88;;
17606;SDS011;69222;52.242;20.980;2023-07-16T11:50:17;5.43;;;4.22;;
17606;SDS011;69222;52.242;20.980;2023-07-16T11:52:51;6.22;;;4.43;;
17606;SDS011;69222;52.242;20.980;2023-07-16T11:55:21;7.90;;;4.85;;
17606;SDS011;69222;52.242;20.980;2023-07-16T11:57:50;6.13;;;4.00;;
17606;SDS011;69222;52.242;20.980;2023-07-16T12:00:18;5.80;;;4.22;;
17606;SDS011;69222;52.242;20.980;2023-07-16T12:02:46;5.57;;;4.50;;
17606;SDS011;69222;52.242;20.980;2023-07-16T12:05:18;7.30;;;4.80;;
17606;SDS011;69222;52.242;20.980;2023-07-16T12:07:56;8.90;;;5.00;;
17606;SDS011;69222;52.242;20.980;2023-07-16T12:10:25;6.00;;;4.40;;
17606;SDS011;69222;52.242;20.980;2023-07-16T12:12:53;4.68;;;4.28;;
17606;SDS011;69222;52.242;20.980;2023-07-16T12:15:21;5.18;;;3.92;;
17606;SDS011;69222;52.242;20.980;2023-07-16T12:17:49;5.30;;;3.88;;
17606;SDS011;69222;52.242;20.980;2023-07-16T12:20:17;4.40;;;3.88;;
17606;SDS011;69222;52.242;20.980;2023-07-16T12:22:45;5.93;;;3.88;;
17606;SDS011;69222;52.242;20.980;2023-07-16T12:25:14;8.50;;;3.78;;
17606;SDS011;69222;52.242;20.980;2023-07-16T12:27:47;5.78;;;3.75;;
17606;SDS011;69222;52.242;20.980;2023-07-16T12:30:18;3.88;;;3.58;;
17606;SDS011;69222;52.242;20.980;2023-07-16T12:32:46;4.10;;;3.67;;
17606;SDS011;69222;52.242;20.980;2023-07-16T12:35:14;4.28;;;3.88;;
17606;SDS011;69222;52.242;20.980;2023-07-16T12:37:43;4.72;;;3.50;;
17606;SDS011;69222;52.242;20.980;2023-07-16T12:40:10;5.00;;;3.60;;
17606;SDS011;69222;52.242;20.980;2023-07-16T12:42:39;4.07;;;3.60;;
17606;SDS011;69222;52.242;20.980;2023-07-16T12:45:08;5.90;;;3.95;;
17606;SDS011;69222;52.242;20.980;2023-07-16T12:47:36;7.78;;;3.88;;
17606;SDS011;69222;52.242;20.980;2023-07-16T12:50:06;4.93;;;3.75;;
17606;SDS011;69222;52.242;20.980;2023-07-16T12:52:35;4.80;;;3.40;;
17606;SDS011;69222;52.242;20.980;2023-07-16T12:55:03;4.75;;;3.83;;
17606;SDS011;69222;52.242;20.980;2023-07-16T12:57:31;4.53;;;4.10;;
17606;SDS011;69222;52.242;20.980;2023-07-16T13:00:00;3.95;;;3.30;;
17606;SDS011;69222;52.242;20.980;2023-07-16T13:02:33;5.22;;;3.13;;
17606;SDS011;69222;52.242;20.980;2023-07-16T13:05:01;4.15;;;3.33;;
17606;SDS011;69222;52.242;20.980;2023-07-16T13:07:29;4.85;;;3.08;;
17606;SDS011;69222;52.242;20.980;2023-07-16T13:09:58;3.65;;;3.00;;
17606;SDS011;69222;52.242;20.980;2023-07-16T13:12:43;3.42;;;3.13;;
17606;SDS011;69222;52.242;20.980;2023-07-16T13:15:11;4.25;;;2.40;;
17606;SDS011;69222;52.242;20.980;2023-07-16T13:17:40;5.97;;;2.90;;
17606;SDS011;69222;52.242;20.980;2023-07-16T13:20:08;4.38;;;3.10;;
17606;SDS011;69222;52.242;20.980;2023-07-16T13:22:37;2.60;;;2.25;;
17606;SDS011;69222;52.242;20.980;2023-07-16T13:25:05;2.88;;;2.67;;
17606;SDS011;69222;52.242;20.980;2023-07-16T13:27:34;2.67;;;2.45;;
17606;SDS011;69222;52.242;20.980;2023-07-16T13:30:02;2.83;;;2.40;;
17606;SDS011;69222;52.242;20.980;2023-07-16T13:32:30;3.92;;;2.95;;
17606;SDS011;69222;52.242;20.980;2023-07-16T13:35:00;4.10;;;3.00;;
17606;SDS011;69222;52.242;20.980;2023-07-16T13:37:29;2.97;;;2.75;;
17606;SDS011;69222;52.242;20.980;2023-07-16T13:39:57;4.43;;;2.80;;
17606;SDS011;69222;52.242;20.980;2023-07-16T13:42:25;3.03;;;2.45;;
17606;SDS011;69222;52.242;20.980;2023-07-16T13:44:53;6.75;;;3.15;;
17606;SDS011;69222;52.242;20.980;2023-07-16T13:47:21;5.53;;;3.10;;
17606;SDS011;69222;52.242;20.980;2023-07-16T13:49:50;2.90;;;2.70;;
17606;SDS011;69222;52.242;20.980;2023-07-16T13:52:19;3.90;;;2.70;;
17606;SDS011;69222;52.242;20.980;2023-07-16T13:54:47;3.00;;;2.80;;
17606;SDS011;69222;52.242;20.980;2023-07-16T13:57:16;2.72;;;2.22;;
17606;SDS011;69222;52.242;20.980;2023-07-16T13:59:44;3.17;;;2.88;;
17606;SDS011;69222;52.242;20.980;2023-07-16T14:02:12;4.35;;;3.15;;
17606;SDS011;69222;52.242;20.980;2023-07-16T14:04:40;2.50;;;2.30;;
17606;SDS011;69222;52.242;20.980;2023-07-16T14:07:08;2.70;;;2.10;;
17606;SDS011;69222;52.242;20.980;2023-07-16T14:09:37;3.05;;;2.08;;
17606;SDS011;69222;52.242;20.980;2023-07-16T14:12:05;3.75;;;2.55;;
17606;SDS011;69222;52.242;20.980;2023-07-16T14:14:34;2.80;;;2.60;;
17606;SDS011;69222;52.242;20.980;2023-07-16T14:17:02;3.15;;;2.47;;
17606;SDS011;69222;52.242;20.980;2023-07-16T14:19:30;2.50;;;2.30;;
17606;SDS011;69222;52.242;20.980;2023-07-16T14:21:58;2.38;;;2.25;;
17606;SDS011;69222;52.242;20.980;2023-07-16T14:24:26;6.63;;;2.60;;
17606;SDS011;69222;52.242;20.980;2023-07-16T14:26:57;2.90;;;2.30;;
17606;SDS011;69222;52.242;20.980;2023-07-16T14:29:26;2.90;;;2.60;;
17606;SDS011;69222;52.242;20.980;2023-07-16T14:31:55;4.03;;;1.95;;
17606;SDS011;69222;52.242;20.980;2023-07-16T14:34:25;2.97;;;2.30;;
17606;SDS011;69222;52.242;20.980;2023-07-16T14:36:53;3.75;;;2.10;;
17606;SDS011;69222;52.242;20.980;2023-07-16T14:39:21;3.88;;;2.30;;
17606;SDS011;69222;52.242;20.980;2023-07-16T14:41:49;4.00;;;2.50;;
17606;SDS011;69222;52.242;20.980;2023-07-16T14:44:19;2.58;;;2.35;;